Time;durP1;ratioP1;P1;durP2;ratioP2;P2;SDS_P1;SDS_P2;PMS_P1;PMS_P2;Temp;Humidity;BMP_temperature;BMP_pressure;BME280_temperature;BME280_humidity;BME280_pressure;Samples;Min_cycle;Max_cycle;Signal;HPM_P1;HPM_P2
2022/12/22 03:27:26;;;;;;;42.95;19.77;;;;;;;-1.26;74.34;101350.91;1674781;85;26064;-63
2022/12/22 03:29:53;;;;;;;46.95;21.12;;;;;;;-1.24;74.02;101344.71;1675307;85;26253;-63
2022/12/22 03:32:20;;;;;;;43.63;21.82;;;;;;;-1.30;73.67;101342.65;1675816;84;26563;-63
2022/12/22 03:34:47;;;;;;;49.95;22.90;;;;;;;-1.36;73.74;101346.80;1695225;84;25830;-63
2022/12/22 03:37:13;;;;;;;45.40;19.87;;;;;;;-1.35;73.86;101341.94;1695167;83;27472;-63
2022/12/22 03:39:40;;;;;;;43.55;20.68;;;;;;;-1.35;73.91;101347.22;1695383;84;25718;-63
2022/12/22 03:47:42;;;;;;;44.38;20.82;;;;;;;-1.39;74.19;101346.88;1695113;83;26439;-63
2022/12/22 03:50:09;;;;;;;49.33;23.20;;;;;;;-1.46;73.96;101348.86;1695153;84;27502;-63
2022/12/22 03:52:36;;;;;;;48.02;23.55;;;;;;;-1.53;73.98;101349.07;1695014;84;25876;-63
2022/12/22 03:55:05;;;;;;;51.85;23.27;;;;;;;-1.63;74.17;101343.20;1695433;84;25761;-63
2022/12/22 03:57:31;;;;;;;52.13;23.67;;;;;;;-1.69;74.20;101341.60;1695306;84;25809;-63
2022/12/22 03:59:59;;;;;;;50.55;22.62;;;;;;;-1.71;74.08;101338.60;1695177;84;25702;-63
2022/12/22 04:02:26;;;;;;;52.53;24.55;;;;;;;-1.76;74.05;101330.34;1695440;83;27598;-63
2022/12/22 04:04:53;;;;;;;50.08;23.83;;;;;;;-1.81;74.21;101326.98;1695211;84;25720;-63
2022/12/22 04:07:19;;;;;;;53.45;23.38;;;;;;;-1.82;74.45;101327.02;1702927;84;25843;-63
2022/12/22 04:15:00;;;;;;;52.78;22.52;;;;;;;-1.80;74.73;101327.84;1703692;84;27490;-63
2022/12/22 04:17:26;;;;;;;50.75;24.32;;;;;;;-1.83;74.65;101329.23;1704518;82;25800;-63
2022/12/22 04:19:53;;;;;;;55.08;24.02;;;;;;;-1.84;74.64;101331.48;1730712;82;25784;-63
2022/12/22 04:22:20;;;;;;;54.38;24.75;;;;;;;-1.89;74.62;101325.88;1730602;82;26691;-63
2022/12/22 04:24:46;;;;;;;54.55;25.40;;;;;;;-1.93;74.64;101318.94;1730865;82;25777;-63
2022/12/22 04:27:13;;;;;;;63.13;27.77;;;;;;;-1.98;74.75;101321.32;1730435;82;27488;-63
2022/12/22 04:29:40;;;;;;;56.88;24.90;;;;;;;-2.02;74.57;101328.89;1730418;82;25815;-63
2022/12/22 04:32:07;;;;;;;64.00;28.17;;;;;;;-2.03;74.82;101319.25;1730579;82;25716;-63
2022/12/22 04:34:34;;;;;;;68.62;27.77;;;;;;;-1.98;75.19;101318.22;1696821;82;25836;-62
2022/12/22 04:37:00;;;;;;;67.37;29.20;;;;;;;-2.02;74.80;101316.59;1678737;84;25806;-62
2022/12/22 04:39:27;;;;;;;67.47;28.62;;;;;;;-2.03;74.83;101321.45;1703638;84;27482;-61
2022/12/22 04:41:54;;;;;;;65.80;26.45;;;;;;;-2.06;74.79;101318.41;1703744;83;26512;-62
2022/12/22 04:44:20;;;;;;;60.25;27.35;;;;;;;-2.02;74.84;101320.98;1703920;83;25734;-61
2022/12/22 04:46:47;;;;;;;60.03;27.75;;;;;;;-2.00;74.90;101319.17;1703574;83;25787;-61
2022/12/22 04:49:14;;;;;;;65.00;28.90;;;;;;;-2.01;74.97;101320.92;1703593;84;25873;-61
2022/12/22 04:51:41;;;;;;;54.95;25.15;;;;;;;-2.03;74.78;101313.53;1703629;83;27402;-63
2022/12/22 04:54:08;;;;;;;55.85;25.55;;;;;;;-1.99;75.01;101316.48;1703856;84;25715;-63
2022/12/22 04:56:35;;;;;;;59.55;26.60;;;;;;;-1.98;75.13;101316.05;1703528;83;25732;-63
2022/12/22 04:59:01;;;;;;;52.88;24.25;;;;;;;-1.98;75.21;101312.09;1703498;84;25832;-63
2022/12/22 05:01:28;;;;;;;56.15;25.15;;;;;;;-2.02;74.98;101311.31;1703708;84;25782;-63
2022/12/22 05:03:55;;;;;;;55.25;25.23;;;;;;;-2.04;74.99;101314.44;1703509;84;27461;-63
2022/12/22 05:06:22;;;;;;;49.53;23.40;;;;;;;-2.00;75.25;101318.70;1704789;84;25868;-63
2022/12/22 05:08:48;;;;;;;53.00;23.47;;;;;;;-2.00;75.07;101315.22;1716846;83;25724;-63
2022/12/22 05:11:15;;;;;;;52.03;23.45;;;;;;;-2.06;75.09;101316.25;1730495;82;25805;-63
2022/12/22 05:13:42;;;;;;;53.02;25.48;;;;;;;-2.03;75.27;101318.81;1706064;83;26349;-63
2022/12/22 05:16:13;;;;;;;50.80;23.38;;;;;;;-2.10;75.22;101316.78;1715210;83;27463;-63
2022/12/22 05:18:43;;;;;;;56.48;23.38;;;;;;;-2.15;75.30;101319.13;1717979;83;25767;-60
2022/12/22 05:21:14;;;;;;;50.38;23.50;;;;;;;-2.16;75.58;101330.14;1720860;82;25738;-63
2022/12/22 05:23:42;;;;;;;59.55;25.72;;;;;;;-2.15;75.62;101333.16;1720656;83;25883;-61
2022/12/22 05:26:13;;;;;;;62.65;25.75;;;;;;;-2.18;75.50;101335.90;1690371;84;25834;-63
2022/12/22 05:28:41;;;;;;;54.53;25.23;;;;;;;-2.20;75.74;101331.11;1720774;82;27321;-63
2022/12/22 05:31:13;;;;;;;53.23;27.22;;;;;;;-2.21;75.64;101331.58;1720775;83;25760;-62
2022/12/22 05:33:40;;;;;;;59.00;24.45;;;;;;;-2.17;75.89;101340.70;1704141;83;25468;-62
2022/12/22 05:36:08;;;;;;;59.45;27.25;;;;;;;-2.14;75.97;101341.48;1692305;84;25772;-63
2022/12/22 05:38:37;;;;;;;56.70;26.17;;;;;;;-2.11;76.08;101345.37;1697082;84;25783;-63
2022/12/22 05:41:06;;;;;;;60.35;25.85;;;;;;;-2.03;76.27;101346.50;1714685;82;28179;-62
2022/12/22 05:43:34;;;;;;;61.75;24.87;;;;;;;-2.03;75.90;101350.88;1743887;82;25771;-62
2022/12/22 05:46:04;;;;;;;60.67;25.17;;;;;;;-2.05;75.89;101353.58;1744148;82;25728;-62
2022/12/22 05:48:31;;;;;;;58.23;25.30;;;;;;;-2.03;76.02;101353.52;1743910;82;26422;-62
2022/12/22 05:50:58;;;;;;;61.23;26.02;;;;;;;-1.98;76.17;101347.69;1744276;81;25482;-62
2022/12/22 05:53:25;;;;;;;56.85;26.30;;;;;;;-1.85;76.46;101353.02;1743835;81;28338;-62
2022/12/22 05:55:52;;;;;;;62.93;27.17;;;;;;;-1.83;76.02;101356.49;1743712;82;25827;-63
2022/12/22 05:58:18;;;;;;;62.40;27.85;;;;;;;-1.81;76.05;101356.44;1743753;81;25795;-62
2022/12/22 06:00:45;;;;;;;63.98;26.90;;;;;;;-1.83;75.71;101357.81;1744252;81;25970;-62
2022/12/22 06:03:13;;;;;;;67.62;26.50;;;;;;;-1.82;75.90;101357.34;1744057;82;25752;-62
2022/12/22 06:05:41;;;;;;;65.85;27.85;;;;;;;-1.79;75.96;101358.13;1745905;81;27542;-62
2022/12/22 06:08:07;;;;;;;66.45;28.20;;;;;;;-1.76;75.82;101355.87;1751588;81;25515;-62
2022/12/22 06:10:34;;;;;;;63.33;27.02;;;;;;;-1.78;75.57;101360.33;1751555;81;25718;-62
2022/12/22 06:13:01;;;;;;;64.42;25.92;;;;;;;-1.84;75.30;101374.54;1753984;81;25801;-64
2022/12/22 06:15:28;;;;;;;55.63;25.35;;;;;;;-1.84;75.73;101374.54;1761860;81;25804;-64
2022/12/22 06:17:54;;;;;;;64.72;24.67;;;;;;;-1.83;75.61;101374.95;1761912;80;27468;-63
2022/12/22 06:20:21;;;;;;;60.88;27.50;;;;;;;-1.80;75.82;101378.84;1761771;81;25805;-64
2022/12/22 06:22:48;;;;;;;58.00;27.40;;;;;;;-1.73;75.87;101379.52;1761844;81;25810;-63
2022/12/22 06:25:15;;;;;;;64.77;28.47;;;;;;;-1.70;75.63;101378.59;1761522;81;27960;-63
2022/12/22 06:27:41;;;;;;;68.92;30.97;;;;;;;-1.68;75.66;101384.23;1761942;81;25801;-63
2022/12/22 06:30:10;;;;;;;55.75;26.25;;;;;;;-1.64;75.71;101384.53;1761703;81;27649;-63
2022/12/22 06:32:38;;;;;;;53.23;25.62;;;;;;;-1.58;75.90;101389.66;1761860;81;25772;-64
2022/12/22 06:35:07;;;;;;;59.60;25.23;;;;;;;-1.49;76.03;101383.24;1761765;81;25734;-64
2022/12/22 06:37:34;;;;;;;57.43;27.90;;;;;;;-1.46;75.66;101390.20;1755459;80;25801;-64
2022/12/22 06:40:03;;;;;;;63.48;26.12;;;;;;;-1.49;75.54;101394.27;1744785;82;25774;-63
2022/12/22 06:45:15;;;;;;;57.78;26.12;;;;;;;-1.52;75.11;101388.59;1744916;82;25953;-62
2022/12/22 06:47:42;;;;;;;58.58;27.20;;;;;;;-1.58;75.09;101383.06;1744941;82;25723;-63
2022/12/22 06:50:11;;;;;;;61.33;28.10;;;;;;;-1.60;75.16;101391.47;1744646;82;25805;-63
2022/12/22 06:52:38;;;;;;;65.00;28.73;;;;;;;-1.54;75.48;101400.11;1745103;82;25802;-63
2022/12/22 06:55:07;;;;;;;61.60;27.95;;;;;;;-1.44;75.71;101394.98;1744717;82;27362;-63
2022/12/22 06:57:34;;;;;;;58.10;28.05;;;;;;;-1.38;75.45;101393.48;1744750;82;25806;-63
2022/12/22 07:00:01;;;;;;;59.67;26.85;;;;;;;-1.32;75.56;101389.37;1744864;82;25795;-63
2022/12/22 07:02:28;;;;;;;58.10;27.40;;;;;;;-1.34;75.07;101381.06;1745110;82;25814;-64
2022/12/22 07:04:55;;;;;;;66.92;30.75;;;;;;;-1.34;75.20;101377.09;1744774;82;25821;-64
2022/12/22 07:07:22;;;;;;;62.13;29.18;;;;;;;-1.30;75.36;101366.88;1723040;82;27512;-63
2022/12/22 07:09:49;;;;;;;69.40;30.45;;;;;;;-1.24;75.49;101365.36;1722118;82;26223;-63
2022/12/22 07:12:18;;;;;;;64.55;28.73;;;;;;;-1.18;75.46;101377.52;1722807;83;25835;-63
2022/12/22 07:14:45;;;;;;;73.83;32.90;;;;;;;-1.09;75.60;101368.47;1722183;83;26577;-63
2022/12/22 07:17:12;;;;;;;61.02;28.38;;;;;;;-1.00;75.69;101370.84;1722654;83;25718;-63
2022/12/22 07:19:39;;;;;;;66.25;31.10;;;;;;;-0.91;75.77;101363.95;1722300;83;29706;-64
2022/12/22 07:22:06;;;;;;;62.27;29.55;;;;;;;-0.87;75.30;101370.84;1722241;83;25772;-63
2022/12/22 07:24:32;;;;;;;66.65;30.68;;;;;;;-0.85;75.20;101364.22;1722259;83;25480;-63
2022/12/22 07:26:59;;;;;;;62.93;30.25;;;;;;;-0.85;75.06;101362.42;1722425;83;25787;-64
2022/12/22 07:29:26;;;;;;;65.40;31.55;;;;;;;-0.87;74.82;101368.67;1722226;83;25853;-63
2022/12/22 07:31:53;;;;;;;69.58;33.33;;;;;;;-0.79;75.09;101353.45;1722388;83;29689;-63
2022/12/22 07:34:20;;;;;;;69.67;32.05;;;;;;;-0.74;74.95;101358.11;1733067;81;25727;-64
2022/12/22 07:36:46;;;;;;;84.75;32.78;;;;;;;-0.76;74.63;101367.86;1736362;81;25870;-63
2022/12/22 07:39:13;;;;;;;73.40;32.55;;;;;;;-0.75;74.40;101366.09;1761447;81;27891;-64
2022/12/22 07:44:25;;;;;;;64.05;31.35;;;;;;;-0.73;74.66;101362.48;1761653;81;28521;-63
2022/12/22 07:46:52;;;;;;;67.40;28.92;;;;;;;-0.70;74.62;101354.48;1762150;81;25754;-63
2022/12/22 07:52:05;;;;;;;73.40;32.63;;;;;;;-0.61;74.57;101358.58;1762004;81;25861;-63
2022/12/22 07:54:34;;;;;;;72.03;33.42;;;;;;;-0.55;74.52;101355.76;1761914;81;25704;-63
2022/12/22 07:57:01;;;;;;;79.60;33.05;;;;;;;-0.52;74.35;101356.96;1761942;81;28158;-64
2022/12/22 07:59:27;;;;;;;81.15;34.88;;;;;;;-0.46;74.26;101359.86;1761672;81;25751;-63
2022/12/22 08:01:54;;;;;;;84.52;40.00;;;;;;;-0.44;74.21;101359.36;1762036;81;26717;-64
2022/12/22 08:04:21;;;;;;;86.25;39.23;;;;;;;-0.39;74.28;101353.45;1762374;81;25821;-63
2022/12/22 08:06:50;;;;;;;79.53;37.05;;;;;;;-0.34;74.28;101363.43;1761898;81;26171;-64
2022/12/22 08:09:20;;;;;;;75.47;33.73;;;;;;;-0.22;74.45;101357.30;1761994;81;28304;-64
2022/12/22 08:11:48;;;;;;;101.40;34.73;;;;;;;-0.15;73.96;101356.20;1761766;81;25951;-64
2022/12/22 08:14:15;;;;;;;72.22;33.90;;;;;;;-0.15;73.70;101364.13;1760907;80;25813;-63
2022/12/22 08:16:41;;;;;;;70.30;33.67;;;;;;;-0.13;73.78;101362.27;1759069;80;26149;-64
2022/12/22 08:19:09;;;;;;;69.58;33.28;;;;;;;-0.11;73.71;101361.77;1759629;81;25725;-63
2022/12/22 08:21:35;;;;;;;78.12;36.38;;;;;;;-0.03;73.70;101360.20;1758565;81;28148;-63
2022/12/22 08:24:03;;;;;;;86.67;40.10;;;;;;;0.02;73.64;101357.39;1732399;81;26639;-63
2022/12/22 08:26:36;;;;;;;73.65;32.78;;;;;;;0.08;73.87;101353.20;1717202;83;25714;-64
2022/12/22 08:29:08;;;;;;;77.03;34.55;;;;;;;0.12;73.45;101354.83;1716705;83;25844;-64
2022/12/22 08:31:35;;;;;;;82.15;36.13;;;;;;;0.20;73.55;101347.92;1717157;83;25997;-64
2022/12/22 08:34:06;;;;;;;83.95;37.03;;;;;;;0.24;73.15;101346.91;1730990;81;28707;-64
2022/12/22 08:36:38;;;;;;;72.92;34.98;;;;;;;0.28;72.75;101338.80;1732981;82;25725;-64
2022/12/22 08:39:07;;;;;;;73.45;33.10;;;;;;;0.31;72.77;101336.49;1698322;84;25755;-64
2022/12/22 08:41:50;;;;;;;71.40;34.53;;;;;;;0.38;72.59;101332.69;1664251;86;25882;-64
2022/12/22 08:44:27;;;;;;;74.70;33.90;;;;;;;0.45;72.65;101328.89;1645987;86;26123;-64
2022/12/22 08:46:56;;;;;;;78.65;34.65;;;;;;;0.68;72.66;101324.97;1666740;85;27509;-63
2022/12/22 08:49:25;;;;;;;72.10;32.78;;;;;;;0.86;72.10;101320.28;1675461;85;25829;-64
2022/12/22 08:51:53;;;;;;;75.25;34.48;;;;;;;0.97;71.90;101311.94;1675331;85;25867;-64
2022/12/22 08:54:20;;;;;;;74.90;36.40;;;;;;;0.97;71.42;101319.00;1686438;84;26665;-64
2022/12/22 08:56:48;;;;;;;65.75;32.28;;;;;;;0.94;71.57;101321.32;1656614;85;25965;-64
2022/12/22 08:59:16;;;;;;;84.03;34.58;;;;;;;1.03;71.39;101316.13;1677714;85;27520;-64
2022/12/22 09:01:49;;;;;;;76.33;36.05;;;;;;;1.05;71.10;101311.17;1685321;83;25906;-64
2022/12/22 09:04:16;;;;;;;80.70;35.03;;;;;;;0.98;71.21;101314.99;1667695;84;25675;-63
2022/12/22 09:06:44;;;;;;;79.62;36.85;;;;;;;1.04;71.30;101316.50;1716974;81;25847;-64
2022/12/22 09:09:14;;;;;;;95.40;38.15;;;;;;;1.07;70.99;101308.45;1731859;81;25530;-64
2022/12/22 09:11:41;;;;;;;78.83;36.58;;;;;;;1.11;71.00;101313.16;1738442;82;27455;-63
2022/12/22 09:14:10;;;;;;;87.08;37.80;;;;;;;1.08;70.81;101310.17;1737981;80;25740;-64
2022/12/22 09:16:38;;;;;;;101.25;43.48;;;;;;;1.19;70.68;101311.05;1736214;81;25795;-64
2022/12/22 09:19:05;;;;;;;103.17;40.98;;;;;;;1.33;70.60;101299.44;1736581;82;26412;-64
2022/12/22 09:21:33;;;;;;;88.35;39.80;;;;;;;1.41;70.35;101299.11;1730527;82;25823;-63
2022/12/22 09:24:00;;;;;;;83.52;38.88;;;;;;;1.51;70.20;101300.92;1713387;83;26863;-64
2022/12/22 09:26:28;;;;;;;92.88;41.20;;;;;;;1.59;69.74;101300.58;1716379;81;25890;-63
2022/12/22 09:28:56;;;;;;;94.25;40.23;;;;;;;1.66;69.91;101295.44;1734474;81;25807;-63
2022/12/22 09:31:25;;;;;;;76.50;35.45;;;;;;;1.70;69.24;101303.64;1736400;82;25946;-64
2022/12/22 09:33:53;;;;;;;69.70;34.83;;;;;;;1.75;69.55;101292.36;1730901;82;25859;-63
2022/12/22 09:36:24;;;;;;;84.37;38.42;;;;;;;1.93;69.50;101293.36;1730673;82;27481;-63
2022/12/22 09:38:51;;;;;;;71.62;35.43;;;;;;;2.23;69.52;101292.05;1735564;81;27279;-63
2022/12/22 09:41:35;;;;;;;77.25;36.65;;;;;;;2.50;69.10;101281.97;1736213;82;25831;-64
2022/12/22 09:44:06;;;;;;;85.53;39.63;;;;;;;2.78;68.43;101282.00;1736994;82;25756;-64
2022/12/22 09:46:36;;;;;;;79.32;36.98;;;;;;;3.06;67.86;101272.22;1722865;81;25831;-64
2022/12/22 09:49:05;;;;;;;82.55;39.35;;;;;;;3.21;67.03;101265.28;1736232;81;27590;-65
2022/12/22 09:51:41;;;;;;;75.20;39.35;;;;;;;3.34;66.63;101273.50;1741482;82;26175;-63
2022/12/22 09:54:11;;;;;;;79.10;40.67;;;;;;;3.54;66.28;101268.50;1740742;80;25753;-63
2022/12/22 09:56:38;;;;;;;89.67;39.00;;;;;;;3.79;65.99;101263.23;1740121;82;25970;-64
2022/12/22 09:59:18;;;;;;;80.25;38.30;;;;;;;4.02;65.65;101250.03;1741972;82;25771;-63
2022/12/22 10:02:14;;;;;;;69.30;35.78;;;;;;;4.23;65.22;101253.34;1732350;81;27482;-62
2022/12/22 10:05:02;;;;;;;92.72;38.67;;;;;;;4.53;65.50;101255.27;1738841;81;26050;-62
2022/12/22 10:07:33;;;;;;;78.78;38.35;;;;;;;4.74;65.17;101248.82;1736702;81;25797;-63
2022/12/22 10:10:28;;;;;;;81.12;39.65;;;;;;;5.06;64.31;101244.80;1738185;81;25789;-63
2022/12/22 10:12:58;;;;;;;71.50;37.63;;;;;;;5.08;63.31;101239.77;1741108;82;25973;-64
2022/12/22 10:15:26;;;;;;;74.25;37.95;;;;;;;5.22;63.05;101231.41;1754786;81;28331;-63
2022/12/22 10:17:58;;;;;;;82.30;39.70;;;;;;;5.33;61.15;101231.16;1750574;81;25893;-64
2022/12/22 10:20:28;;;;;;;74.47;37.08;;;;;;;5.29;61.35;101228.79;1738212;81;25780;-63
2022/12/22 10:23:05;;;;;;;82.22;40.05;;;;;;;5.00;60.64;101220.69;1740392;81;26035;-63
2022/12/22 10:25:40;;;;;;;76.82;37.78;;;;;;;4.86;61.68;101211.66;1745071;81;25796;-64
2022/12/22 10:28:17;;;;;;;72.55;36.83;;;;;;;4.95;61.54;101207.62;1734664;80;28413;-62
2022/12/22 10:30:44;;;;;;;66.65;34.73;;;;;;;4.97;61.44;101203.52;1732164;80;26011;-63
2022/12/22 10:33:15;;;;;;;65.95;35.92;;;;;;;5.01;61.96;101197.92;1740043;82;25736;-63
2022/12/22 10:35:55;;;;;;;79.87;37.63;;;;;;;5.00;61.30;101192.20;1727762;80;26334;-63
2022/12/22 10:38:33;;;;;;;72.03;36.50;;;;;;;4.96;60.63;101194.67;1737218;81;25844;-64
2022/12/22 10:41:17;;;;;;;68.47;36.53;;;;;;;4.91;61.23;101191.40;1741345;81;27450;-63
2022/12/22 10:43:52;;;;;;;;;;;;;;;4.99;61.39;101191.80;1742190;81;25798;-64
2022/12/22 10:46:43;;;;;;;70.62;35.88;;;;;;;5.09;61.15;101184.60;1733481;81;25713;-64
2022/12/22 10:49:18;;;;;;;75.95;39.85;;;;;;;4.86;60.71;101185.00;1737749;80;25805;-64
2022/12/22 10:52:13;;;;;;;73.17;37.73;;;;;;;4.52;60.52;101173.62;1739696;81;25802;-63
2022/12/22 10:54:42;;;;;;;75.90;38.60;;;;;;;4.31;60.78;101177.02;1739438;81;27498;-63
2022/12/22 10:57:18;;;;;;;94.60;40.92;;;;;;;3.97;61.21;101165.58;1731731;81;25780;-63
2022/12/22 10:59:55;;;;;;;95.25;38.38;;;;;;;3.78;61.57;101163.03;1682519;83;25843;-63
2022/12/22 11:02:36;;;;;;;81.95;38.30;;;;;;;3.69;61.96;101174.17;1657427;83;26497;-62
2022/12/22 11:05:09;;;;;;;70.32;36.00;;;;;;;3.52;62.34;101174.59;1680116;83;25831;-63
2022/12/22 11:07:41;;;;;;;81.17;38.98;;;;;;;3.38;62.68;101177.98;1681372;83;28120;-63
2022/12/22 11:10:39;;;;;;;79.20;36.53;;;;;;;3.32;63.11;101174.32;1680080;85;25861;-62
2022/12/22 11:13:29;;;;;;;75.22;35.17;;;;;;;3.13;63.28;101171.76;1680283;83;25797;-62
2022/12/22 11:16:17;;;;;;;79.20;35.73;;;;;;;2.94;63.74;101178.45;1615440;86;25999;-62
2022/12/22 11:18:52;;;;;;;91.55;40.43;;;;;;;2.82;64.15;101186.58;1578922;87;25899;-62
2022/12/22 11:21:46;;;;;;;78.95;34.50;;;;;;;2.68;64.63;101185.92;1634508;85;27508;-63
2022/12/22 11:24:20;;;;;;;74.47;37.20;;;;;;;2.72;64.73;101185.30;1655133;86;25793;-62
2022/12/22 11:26:56;;;;;;;;;;;;;;;2.63;65.00;101176.00;1657561;86;25750;-64
2022/12/22 11:29:37;;;;;;;73.33;35.35;;;;;;;2.60;64.97;101177.47;1655047;85;25959;-63
2022/12/22 11:32:44;;;;;;;79.77;35.20;;;;;;;2.51;65.20;101176.11;1655106;86;25710;-62
2022/12/22 11:35:25;;;;;;;69.80;34.75;;;;;;;2.41;65.23;101173.05;1643502;85;27480;-62
2022/12/22 11:38:35;;;;;;;67.58;34.55;;;;;;;2.32;65.27;101158.87;1668160;84;25818;-62
2022/12/22 11:41:39;;;;;;;75.92;33.05;;;;;;;2.25;65.49;101159.63;1622926;86;25854;-62
2022/12/22 11:44:51;;;;;;;67.22;33.40;;;;;;;2.22;65.61;101154.94;1649242;85;25848;-62
2022/12/22 11:47:54;;;;;;;74.62;34.27;;;;;;;2.22;66.01;101163.78;1671082;84;25805;-62
2022/12/22 11:50:42;;;;;;;66.90;32.78;;;;;;;2.21;66.20;101146.13;1671844;85;28218;-64
2022/12/22 11:53:35;;;;;;;68.90;34.03;;;;;;;2.22;66.39;101145.20;1657752;85;25848;-62
2022/12/22 11:56:23;;;;;;;67.12;33.73;;;;;;;2.22;66.59;101145.20;1667907;84;25827;-62
2022/12/22 11:59:14;;;;;;;72.70;34.05;;;;;;;2.31;66.46;101147.86;1672619;85;25850;-62
2022/12/22 12:05:50;;;;;;;78.85;36.28;;;;;;;2.41;66.33;101145.16;1675888;84;28151;-63
2022/12/22 12:08:54;;;;;;;80.42;38.10;;;;;;;2.38;66.21;101133.35;1652344;85;27064;-63
2022/12/22 12:11:32;;;;;;;71.70;38.37;;;;;;;2.27;66.30;101123.74;1646997;85;25916;-63
2022/12/22 12:14:35;;;;;;;73.17;37.45;;;;;;;2.27;66.30;101123.74;1651220;86;26484;-63
2022/12/22 12:17:24;;;;;;;75.03;36.73;;;;;;;2.13;66.05;101120.42;1675886;85;25799;-62
2022/12/22 12:20:12;;;;;;;72.10;36.40;;;;;;;1.98;66.50;101124.17;1672262;84;27515;-63
2022/12/22 12:22:59;;;;;;;72.42;35.05;;;;;;;1.88;66.74;101126.89;1661527;84;25830;-62
2022/12/22 12:25:59;;;;;;;80.35;36.00;;;;;;;1.88;67.14;101117.61;1675990;84;25800;-63
2022/12/22 12:28:46;;;;;;;65.97;33.33;;;;;;;1.80;67.23;101118.40;1661533;84;26597;-63
2022/12/22 12:31:18;;;;;;;72.92;32.90;;;;;;;1.69;67.48;101121.55;1670268;84;25840;-62
2022/12/22 12:33:55;;;;;;;66.05;32.35;;;;;;;1.64;67.72;101130.20;1690235;83;27460;-63
2022/12/22 12:36:45;;;;;;;70.87;34.15;;;;;;;1.65;67.87;101128.80;1695003;84;25911;-63
2022/12/22 12:39:36;;;;;;;64.90;31.93;;;;;;;1.65;67.81;101135.42;1691571;83;25841;-63
2022/12/22 12:42:40;;;;;;;75.37;34.90;;;;;;;1.66;67.81;101140.28;1666970;84;25800;-61
2022/12/22 12:45:40;;;;;;;76.72;36.33;;;;;;;1.55;68.00;101134.99;1657655;85;25783;-63
2022/12/22 12:48:24;;;;;;;71.75;33.60;;;;;;;1.51;68.04;101132.06;1657455;85;27218;-64
2022/12/22 12:50:58;;;;;;;66.70;33.58;;;;;;;1.47;68.37;101137.58;1659329;84;25730;-63
2022/12/22 12:53:29;;;;;;;79.90;36.60;;;;;;;1.42;68.49;101119.70;1675909;85;25805;-63
2022/12/22 12:56:08;;;;;;;81.15;34.23;;;;;;;1.37;68.48;101127.38;1679682;84;25866;-64
2022/12/22 12:58:41;;;;;;;75.52;32.67;;;;;;;1.35;68.66;101133.69;1667345;83;25825;-64
2022/12/22 13:01:30;;;;;;;;;;;;;;;1.33;68.74;101133.77;1690434;83;27880;-64
2022/12/22 13:03:59;;;;;;;69.12;33.28;;;;;;;1.46;68.73;101133.20;1651167;86;25821;-64
2022/12/22 13:06:54;;;;;;;65.85;32.45;;;;;;;1.45;68.81;101127.05;1663905;86;25813;-63
2022/12/22 13:09:28;;;;;;;69.62;34.00;;;;;;;1.40;68.61;101132.56;1648825;85;25852;-64
2022/12/22 13:11:55;;;;;;;;;;;;;;;1.35;68.58;101127.06;1607627;89;25888;-63
2022/12/22 13:14:55;;;;;;;100.50;31.82;;;;;;;1.28;68.73;101122.97;1658645;85;27417;-63
2022/12/22 13:17:40;;;;;;;71.17;31.65;;;;;;;1.23;68.73;101124.02;1652132;85;25822;-62
2022/12/22 13:20:15;;;;;;;70.85;34.92;;;;;;;1.22;68.80;101111.69;1663840;85;26374;-65
2022/12/22 13:22:43;;;;;;;72.47;32.90;;;;;;;1.17;68.93;101115.46;1663845;86;26491;-64
2022/12/22 13:25:15;;;;;;;78.35;35.73;;;;;;;1.13;69.28;101104.14;1657086;86;27246;-64
2022/12/22 13:27:43;;;;;;;62.67;33.25;;;;;;;1.11;69.35;101101.16;1646316;86;27476;-63
2022/12/22 13:30:20;;;;;;;101.82;36.25;;;;;;;1.08;69.39;101089.77;1637157;86;26148;-63
2022/12/22 13:32:49;;;;;;;85.03;36.93;;;;;;;1.05;69.65;101089.92;1647923;86;25747;-63
2022/12/22 13:35:26;;;;;;;79.77;36.83;;;;;;;0.97;69.67;101084.55;1654082;85;25773;-63
2022/12/22 13:37:53;;;;;;;82.80;37.65;;;;;;;0.93;69.62;101097.95;1644411;85;25718;-63
2022/12/22 13:40:30;;;;;;;77.08;33.80;;;;;;;0.90;69.86;101098.51;1664118;85;27484;-64
2022/12/22 13:43:14;;;;;;;70.95;34.85;;;;;;;0.90;69.67;101099.84;1662911;85;25809;-63
2022/12/22 13:45:48;;;;;;;80.10;35.58;;;;;;;0.86;69.77;101099.11;1655948;85;25776;-63
2022/12/22 13:48:48;;;;;;;67.97;33.10;;;;;;;0.85;69.85;101104.00;1649090;86;25838;-62
2022/12/22 13:51:34;;;;;;;78.15;35.80;;;;;;;0.77;69.82;101101.70;1645771;85;25797;-62
2022/12/22 13:54:09;;;;;;;79.77;35.83;;;;;;;0.70;70.08;101098.04;1634700;85;27525;-63
2022/12/22 13:56:49;;;;;;;73.95;35.78;;;;;;;0.68;70.17;101098.56;1630560;87;25799;-64
2022/12/22 13:59:35;;;;;;;72.15;34.67;;;;;;;0.72;70.16;101103.66;1618270;86;25773;-63
2022/12/22 14:02:11;;;;;;;84.00;37.28;;;;;;;0.75;70.37;101100.90;1656292;86;25779;-62
2022/12/22 14:04:42;;;;;;;78.47;38.15;;;;;;;0.76;70.16;101101.78;1654144;83;25701;-63
2022/12/22 14:07:18;;;;;;;74.55;35.90;;;;;;;0.69;70.18;101104.27;1662152;85;28204;-63
2022/12/22 14:09:48;;;;;;;77.67;34.35;;;;;;;0.64;70.22;101110.22;1678538;84;25899;-63
2022/12/22 14:12:24;;;;;;;76.20;34.10;;;;;;;0.59;70.31;101107.29;1652420;84;25793;-62
2022/12/22 14:14:53;;;;;;;81.75;34.73;;;;;;;0.56;70.39;101107.44;1660203;83;25790;-63
2022/12/22 14:17:27;;;;;;;71.92;33.90;;;;;;;0.52;70.54;101103.18;1664069;84;26081;-64
2022/12/22 14:19:58;;;;;;;73.52;33.60;;;;;;;0.50;70.66;101101.05;1663937;84;27488;-63
2022/12/22 14:22:30;;;;;;;74.45;36.55;;;;;;;0.50;70.71;101101.05;1670028;83;25871;-63
2022/12/22 14:25:02;;;;;;;84.05;36.93;;;;;;;0.48;70.78;101106.02;1671205;83;25689;-63
2022/12/22 14:27:41;;;;;;;74.87;34.90;;;;;;;0.47;70.96;101110.47;1676455;83;25920;-65
2022/12/22 14:30:19;;;;;;;81.17;33.55;;;;;;;0.48;70.84;101102.05;1682999;83;25815;-63
2022/12/22 14:32:56;;;;;;;76.55;37.40;;;;;;;0.47;70.87;101110.47;1680700;83;27536;-62
2022/12/22 14:35:29;;;;;;;90.77;37.38;;;;;;;0.49;71.08;101104.66;1675791;83;25832;-62
2022/12/22 14:38:24;;;;;;;74.37;35.75;;;;;;;0.51;71.11;101110.72;1687311;83;25814;-63
2022/12/22 14:40:54;;;;;;;81.10;35.08;;;;;;;0.49;70.96;101107.74;1664741;83;44811;-63
2022/12/22 14:43:27;;;;;;;77.78;35.80;;;;;;;0.38;70.75;101110.84;1680144;83;25805;-62
2022/12/22 14:46:07;;;;;;;83.72;34.63;;;;;;;0.31;70.80;101100.48;1669384;83;27865;-62
2022/12/22 14:48:39;;;;;;;71.80;33.60;;;;;;;0.29;70.96;101102.35;1663575;84;25872;-63
2022/12/22 14:51:06;;;;;;;76.53;34.48;;;;;;;0.30;71.17;101105.40;1662589;84;25899;-63
2022/12/22 14:53:49;;;;;;;65.72;30.37;;;;;;;0.31;71.37;101099.16;1661633;85;26636;-63
2022/12/22 14:56:17;;;;;;;70.25;31.85;;;;;;;0.29;71.31;101112.94;1700996;83;25793;-63
2022/12/22 14:58:47;;;;;;;69.67;33.98;;;;;;;0.25;71.23;101098.56;1683066;83;27490;-62
2022/12/22 15:01:23;;;;;;;74.55;33.60;;;;;;;0.19;71.25;101108.05;1668192;84;25865;-62
2022/12/22 15:04:06;;;;;;;68.12;32.80;;;;;;;0.12;71.32;101119.36;1669006;84;25828;-63
2022/12/22 15:06:38;;;;;;;84.50;35.10;;;;;;;0.07;71.38;101109.41;1670205;84;25898;-63
2022/12/22 15:09:11;;;;;;;69.75;34.78;;;;;;;0.02;71.36;101107.41;1652980;86;25856;-63
2022/12/22 15:11:45;;;;;;;71.92;33.60;;;;;;;-0.06;71.66;101107.70;1646112;85;27541;-63
2022/12/22 15:14:17;;;;;;;79.87;35.17;;;;;;;-0.11;71.62;101106.55;1681070;83;25910;-63
2022/12/22 15:16:45;;;;;;;79.58;38.08;;;;;;;-0.11;71.73;101101.27;1650017;85;25810;-63
2022/12/22 15:19:16;;;;;;;88.17;39.98;;;;;;;-0.12;71.77;101100.86;1651547;86;25793;-63
2022/12/22 15:21:44;;;;;;;81.55;36.80;;;;;;;-0.17;71.94;101110.30;1651996;85;25942;-63
2022/12/22 15:24:14;;;;;;;76.47;35.38;;;;;;;-0.19;71.87;101094.09;1652104;84;28471;-64
2022/12/22 15:26:42;;;;;;;78.67;36.10;;;;;;;-0.16;71.97;101090.02;1651797;86;25819;-62
2022/12/22 15:29:09;;;;;;;71.60;33.28;;;;;;;-0.17;72.11;101086.49;1654229;85;25908;-63
2022/12/22 15:31:39;;;;;;;72.72;34.30;;;;;;;-0.22;71.92;101090.23;1653440;85;27956;-62